createdAt,value
2023-04-10T00:00:53.660Z,101204.84
2023-04-10T00:02:56.656Z,101202.69
2023-04-10T00:04:58.345Z,101200.50
2023-04-10T00:06:59.988Z,101208.38
2023-04-10T00:09:01.552Z,101205.91
2023-04-10T00:11:03.724Z,101202.69
2023-04-10T00:13:05.360Z,101214.03
2023-04-10T00:15:08.111Z,101214.84
2023-04-10T00:17:09.745Z,101211.06
2023-04-10T00:19:12.787Z,101218.06
2023-04-10T00:21:14.367Z,101216.97
2023-04-10T00:23:15.889Z,101222.66
2023-04-10T00:25:17.615Z,101223.19
2023-04-10T00:27:19.214Z,101222.41
2023-04-10T00:29:20.757Z,101224.53
2023-04-10T00:31:22.390Z,101227.78
2023-04-10T00:33:23.959Z,101227.25
2023-04-10T00:35:26.867Z,101226.41
2023-04-10T00:37:28.425Z,101224.78
2023-04-10T00:39:30.002Z,101229.13
2023-04-10T00:41:31.657Z,101229.13
2023-04-10T00:43:33.238Z,101231.25
2023-04-10T00:45:35.045Z,101228.03
2023-04-10T00:47:37.565Z,101227.72
2023-04-10T00:49:39.248Z,101230.72
2023-04-10T00:51:42.105Z,101230.44
2023-04-10T00:53:43.707Z,101223.94
2023-04-10T00:55:45.675Z,101228.78
2023-04-10T00:57:48.052Z,101226.06
2023-04-10T00:59:50.254Z,101225.25
2023-04-10T01:01:51.961Z,101222.56
2023-04-10T01:03:54.845Z,101218.75
2023-04-10T01:06:05.673Z,101220.66
2023-04-10T01:08:17.662Z,101219.28
2023-04-10T01:10:28.978Z,101214.69
2023-04-10T01:12:43.310Z,101212.56
2023-04-10T01:14:52.520Z,101213.66
2023-04-10T01:16:57.851Z,101213.66
2023-04-10T01:19:07.943Z,101217.72
2023-04-10T01:21:11.766Z,101218.00
2023-04-10T01:23:42.463Z,101218.28
2023-04-10T01:25:48.547Z,101214.47
2023-04-10T01:28:05.076Z,101217.41
2023-04-10T01:30:14.305Z,101222.28
2023-04-10T01:32:20.189Z,101225.53
2023-04-10T01:34:25.462Z,101231.44
2023-04-10T01:36:33.654Z,101236.28
2023-04-10T01:38:36.262Z,101229.78
2023-04-10T01:40:40.402Z,101234.63
2023-04-10T01:42:47.472Z,101229.69
2023-04-10T01:44:50.281Z,101230.44
2023-04-10T01:46:54.340Z,101233.06
2023-04-10T01:48:56.832Z,101232.22
2023-04-10T01:51:04.029Z,101228.34
2023-04-10T01:53:07.293Z,101232.44
2023-04-10T01:55:10.198Z,101229.19
2023-04-10T01:57:12.484Z,101229.13
2023-04-10T01:59:14.158Z,101235.78
2023-04-10T02:01:28.362Z,101235.84
2023-04-10T02:03:32.990Z,101231.44
2023-04-10T02:05:55.936Z,101216.63
2023-04-10T02:08:02.307Z,101218.03
2023-04-10T02:10:11.773Z,101211.03
2023-04-10T02:12:16.727Z,101208.88
2023-04-10T02:14:21.672Z,101209.41
2023-04-10T02:16:23.910Z,101206.28
2023-04-10T02:18:26.897Z,101199.53
2023-04-10T02:20:30.952Z,101198.41
2023-04-10T02:22:33.575Z,101197.78
2023-04-10T02:24:35.632Z,101192.81
2023-04-10T02:26:47.002Z,101191.25
2023-04-10T02:28:48.586Z,101199.69
2023-04-10T02:30:50.230Z,101196.16
2023-04-10T02:32:51.840Z,101195.94
2023-04-10T02:34:53.633Z,101189.19
2023-04-10T02:36:56.738Z,101191.31
2023-04-10T02:38:58.271Z,101195.31
2023-04-10T02:40:59.797Z,101193.69
2023-04-10T02:43:04.354Z,101203.03
2023-04-10T02:45:08.784Z,101198.34
2023-04-10T02:47:10.348Z,101188.94
2023-04-10T02:49:11.881Z,101191.84
2023-04-10T02:51:13.647Z,101196.16
2023-04-10T02:53:17.175Z,101192.03
2023-04-10T02:55:18.981Z,101195.50
2023-04-10T02:57:20.567Z,101193.38
2023-04-10T02:59:22.125Z,101191.69
2023-04-10T03:01:23.729Z,101184.47
2023-04-10T03:03:25.767Z,101185.28
2023-04-10T03:05:27.477Z,101180.06
2023-04-10T03:07:29.265Z,101183.25
2023-04-10T03:09:32.162Z,101184.06
2023-04-10T03:11:33.880Z,101181.63
2023-04-10T03:13:35.598Z,101179.19
2023-04-10T03:15:37.967Z,101182.19
2023-04-10T03:17:39.522Z,101182.38
2023-04-10T03:19:41.080Z,101173.22
2023-04-10T03:21:42.704Z,101173.16
2023-04-10T03:23:44.517Z,101174.47
2023-04-10T03:25:51.359Z,101170.97
2023-04-10T03:27:52.957Z,101167.22
2023-04-10T03:29:54.658Z,101165.72
2023-04-10T03:31:56.294Z,101158.13
2023-04-10T03:33:58.260Z,101159.66
2023-04-10T03:36:00.236Z,101149.13
2023-04-10T03:38:01.959Z,101153.53
2023-04-10T03:40:07.422Z,101149.22
2023-04-10T03:42:10.400Z,101142.84
2023-04-10T03:44:12.022Z,101150.94
2023-04-10T03:46:13.590Z,101148.31
2023-04-10T03:48:15.121Z,101149.16
2023-04-10T03:50:16.818Z,101139.66
2023-04-10T03:52:18.310Z,101137.25
2023-04-10T03:54:20.047Z,101141.00
2023-04-10T03:56:24.639Z,101136.63
2023-04-10T03:58:27.528Z,101139.09
2023-04-10T04:00:29.290Z,101138.00
2023-04-10T04:02:31.186Z,101143.72
2023-04-10T04:04:33.122Z,101141.59
2023-04-10T04:06:35.136Z,101147.75
2023-04-10T04:08:36.697Z,101143.44
2023-04-10T04:10:38.177Z,101146.88
2023-04-10T04:12:39.788Z,101143.13
2023-04-10T04:14:42.631Z,101147.41
2023-04-10T04:16:44.269Z,101140.09
2023-04-10T04:18:45.870Z,101145.69
2023-04-10T04:20:47.442Z,101151.13
2023-04-10T04:22:49.333Z,101138.72
2023-04-10T04:24:50.858Z,101141.81
2023-04-10T04:26:52.647Z,101144.19
2023-04-10T04:28:54.200Z,101144.97
2023-04-10T04:30:57.109Z,101140.38
2023-04-10T04:32:58.756Z,101138.78
2023-04-10T04:35:00.496Z,101151.28
2023-04-10T04:37:02.083Z,101142.09
2023-04-10T04:39:03.865Z,101148.59
2023-04-10T04:41:05.888Z,101146.75
2023-04-10T04:43:07.429Z,101142.09
2023-04-10T04:45:10.205Z,101148.72
2023-04-10T04:47:13.078Z,101155.16
2023-04-10T04:49:14.656Z,101154.28
2023-04-10T04:51:16.241Z,101155.25
2023-04-10T04:53:17.827Z,101158.13
2023-04-10T04:55:19.361Z,101159.69
2023-04-10T04:57:21.373Z,101164.47
2023-04-10T04:59:25.823Z,101166.28
2023-04-10T05:01:27.374Z,101172.84
2023-04-10T05:03:30.432Z,101167.34
2023-04-10T05:05:32.274Z,101173.78
2023-04-10T05:07:33.811Z,101171.84
2023-04-10T05:09:35.443Z,101176.09
2023-04-10T05:11:37.023Z,101175.78
2023-04-10T05:13:38.627Z,101172.53
2023-04-10T05:15:40.208Z,101169.84
2023-04-10T05:17:42.102Z,101165.06
2023-04-10T05:19:45.110Z,101170.78
2023-04-10T05:21:46.630Z,101168.63
2023-04-10T05:23:48.140Z,101163.16
2023-04-10T05:25:49.683Z,101156.81
2023-04-10T05:27:51.330Z,101167.78
2023-04-10T05:29:52.989Z,101158.91
2023-04-10T05:31:54.630Z,101152.69
2023-04-10T05:33:56.144Z,101159.25
2023-04-10T05:35:59.031Z,101157.47
2023-04-10T05:38:00.744Z,101158.38
2023-04-10T05:40:02.406Z,101165.72
2023-04-10T05:42:03.973Z,101158.56
2023-04-10T05:44:05.544Z,101162.66
2023-04-10T05:46:07.434Z,101161.13
2023-04-10T05:48:09.162Z,101159.59
2023-04-10T05:50:10.710Z,101159.59
2023-04-10T05:52:13.661Z,101165.59
2023-04-10T05:54:15.168Z,101179.38
2023-04-10T05:56:16.742Z,101178.53
2023-04-10T05:58:18.322Z,101175.94
2023-04-10T06:00:19.931Z,101172.19
2023-04-10T06:02:21.750Z,101167.69
2023-04-10T06:04:23.754Z,101163.13
2023-04-10T06:06:25.764Z,101167.22
2023-04-10T06:08:28.847Z,101167.28
2023-04-10T06:10:30.504Z,101163.81
2023-04-10T06:12:32.225Z,101163.56
2023-04-10T06:14:35.341Z,101174.13
2023-04-10T06:16:37.087Z,101166.53
2023-04-10T06:18:38.919Z,101157.94
2023-04-10T06:20:40.485Z,101154.19
2023-04-10T06:22:42.093Z,101152.63
2023-04-10T06:24:44.924Z,101151.03
2023-04-10T06:26:46.437Z,101142.41
2023-04-10T06:28:48.034Z,101149.16
2023-04-10T06:30:49.646Z,101153.19
2023-04-10T06:32:51.296Z,101147.53
2023-04-10T06:34:52.896Z,101148.88
2023-04-10T06:36:54.402Z,101149.72
2023-04-10T06:38:56.055Z,101142.94
2023-04-10T06:40:59.137Z,101137.56
2023-04-10T06:43:00.835Z,101146.19
2023-04-10T06:45:02.962Z,101142.44
2023-04-10T06:47:04.542Z,101144.03
2023-04-10T06:49:06.093Z,101136.75
2023-04-10T06:51:07.973Z,101145.66
2023-04-10T06:53:09.472Z,101146.47
2023-04-10T06:55:11.538Z,101145.63
2023-04-10T06:57:14.566Z,101135.13
2023-04-10T06:59:16.111Z,101132.94
2023-04-10T07:01:17.832Z,101135.34
2023-04-10T07:03:19.657Z,101141.56
2023-04-10T07:05:21.411Z,101127.75
2023-04-10T07:07:23.289Z,101142.84
2023-04-10T07:09:25.391Z,101133.03
2023-04-10T07:11:29.191Z,101138.16
2023-04-10T07:13:32.311Z,101151.19
2023-04-10T07:15:33.961Z,101140.00
2023-04-10T07:17:35.803Z,101146.44
2023-04-10T07:19:40.473Z,101143.91
2023-04-10T07:21:42.063Z,101144.16
2023-04-10T07:23:43.690Z,101138.66
2023-04-10T07:25:46.184Z,101138.59
2023-04-10T07:27:47.727Z,101135.31
2023-04-10T07:29:50.858Z,101132.41
2023-04-10T07:31:52.441Z,101144.22
2023-04-10T07:33:54.020Z,101137.16
2023-04-10T07:35:55.684Z,101125.41
2023-04-10T07:37:57.263Z,101124.72
2023-04-10T07:39:58.828Z,101126.19
2023-04-10T07:42:00.632Z,101126.00
2023-04-10T07:44:02.172Z,101124.84
2023-04-10T07:46:05.581Z,101127.28
2023-04-10T07:48:07.298Z,101122.16
2023-04-10T07:50:09.356Z,101125.31
2023-04-10T07:52:10.939Z,101126.81
2023-04-10T07:54:12.561Z,101124.50
2023-04-10T07:56:17.796Z,101120.78
2023-04-10T07:58:19.395Z,101119.47
2023-04-10T08:00:21.296Z,101114.22
2023-04-10T08:02:24.425Z,101117.88
2023-04-10T08:04:26.308Z,101118.31
2023-04-10T08:06:28.135Z,101112.00
2023-04-10T08:08:29.863Z,101105.28
2023-04-10T08:10:31.461Z,101117.53
2023-04-10T08:12:33.628Z,101108.56
2023-04-10T08:14:35.181Z,101123.97
2023-04-10T08:16:36.882Z,101117.38
2023-04-10T08:18:39.919Z,101119.72
2023-04-10T08:20:41.541Z,101120.69
2023-04-10T08:22:43.233Z,101119.13
2023-04-10T08:24:44.873Z,101118.53
2023-04-10T08:26:46.403Z,101119.94
2023-04-10T08:28:48.982Z,101114.81
2023-04-10T08:30:52.988Z,101106.38
2023-04-10T08:32:54.533Z,101098.94
2023-04-10T08:34:57.449Z,101105.78
2023-04-10T08:36:59.090Z,101099.69
2023-04-10T08:39:00.693Z,101101.44
2023-04-10T08:41:02.365Z,101097.81
2023-04-10T08:43:04.039Z,101095.91
2023-04-10T08:45:06.709Z,101088.84
2023-04-10T08:47:08.979Z,101089.00
2023-04-10T08:49:15.496Z,101079.34
2023-04-10T08:51:20.648Z,101088.31
2023-04-10T08:53:30.853Z,101077.34
2023-04-10T08:55:32.620Z,101070.50
2023-04-10T08:57:36.274Z,101077.03
2023-04-10T08:59:38.588Z,101083.00
2023-04-10T09:01:40.825Z,101077.78
2023-04-10T09:03:42.610Z,101081.03
2023-04-10T09:05:44.238Z,101078.00
2023-04-10T09:07:47.277Z,101077.00
2023-04-10T09:09:49.166Z,101064.91
2023-04-10T09:11:57.896Z,101062.31
2023-04-10T09:13:59.621Z,101060.63
2023-04-10T09:16:01.264Z,101059.50
2023-04-10T09:18:03.702Z,101059.50
2023-04-10T09:20:21.237Z,101052.47
2023-04-10T09:22:30.772Z,101044.19
2023-04-10T09:24:36.085Z,101035.63
2023-04-10T09:26:42.033Z,101032.91
2023-04-10T09:28:56.113Z,101031.72
2023-04-10T09:30:57.685Z,101027.75
2023-04-10T09:33:00.618Z,101026.84
2023-04-10T09:35:03.928Z,101022.72
2023-04-10T09:37:05.505Z,101018.97
2023-04-10T09:39:07.905Z,101017.75
2023-04-10T09:41:11.376Z,101013.94
2023-04-10T09:43:20.958Z,101019.75
2023-04-10T09:45:22.636Z,101024.41
2023-04-10T09:47:24.365Z,101014.47
2023-04-10T09:49:26.120Z,101010.84
2023-04-10T09:51:32.010Z,101006.72
2023-04-10T09:53:48.718Z,101009.66
2023-04-10T09:55:50.724Z,100990.38
2023-04-10T09:57:53.746Z,100982.63
2023-04-10T09:59:56.658Z,100983.41
2023-04-10T10:01:58.709Z,100979.56
2023-04-10T10:04:02.762Z,100978.66
2023-04-10T10:06:04.786Z,100970.19
2023-04-10T10:08:07.361Z,100965.41
2023-04-10T10:10:09.355Z,100974.56
2023-04-10T10:12:12.266Z,100977.59
2023-04-10T10:14:18.153Z,100975.50
2023-04-10T10:16:21.820Z,100967.22
2023-04-10T10:18:32.558Z,100964.34
2023-04-10T10:20:36.611Z,100961.84
2023-04-10T10:22:38.559Z,100965.91
2023-04-10T10:24:45.061Z,100970.81
2023-04-10T10:26:47.631Z,100965.34
2023-04-10T10:28:50.781Z,100955.91
2023-04-10T10:30:54.578Z,100958.34
2023-04-10T10:32:58.246Z,100956.22
2023-04-10T10:35:01.947Z,100950.63
2023-04-10T10:37:05.770Z,100941.34
2023-04-10T10:39:22.082Z,100944.91
2023-04-10T10:41:28.728Z,100938.81
2023-04-10T10:43:37.736Z,100945.09
2023-04-10T10:45:42.776Z,100939.97
2023-04-10T10:47:49.374Z,100929.69
2023-04-10T10:49:55.948Z,100926.78
2023-04-10T10:51:57.512Z,100926.16
2023-04-10T10:53:59.199Z,100921.63
2023-04-10T10:56:33.976Z,100916.81
2023-04-10T10:58:46.900Z,100924.50
2023-04-10T11:01:12.605Z,100928.09
2023-04-10T11:03:30.879Z,100911.41
2023-04-10T11:05:49.768Z,100906.47
2023-04-10T11:08:09.840Z,100905.22
2023-04-10T11:10:11.431Z,100913.03
2023-04-10T11:12:13.082Z,100906.13
2023-04-10T11:14:17.049Z,100907.84
2023-04-10T11:16:19.592Z,100902.44
2023-04-10T11:21:13.386Z,100892.75
2023-04-10T11:23:14.937Z,100893.47
2023-04-10T11:25:16.677Z,100895.19
2023-04-10T11:27:44.590Z,100884.59
2023-04-10T11:29:46.303Z,100879.16
2023-04-10T11:31:56.491Z,100872.63
2023-04-10T11:34:02.813Z,100868.47
2023-04-10T11:36:04.979Z,100854.25
2023-04-10T11:38:25.970Z,100850.84
2023-04-10T11:40:27.538Z,100849.34
2023-04-10T11:42:29.125Z,100841.03
2023-04-10T11:44:32.428Z,100844.28
2023-04-10T11:46:37.304Z,100837.31
2023-04-10T11:48:38.934Z,100835.72
2023-04-10T11:50:40.521Z,100843.94
2023-04-10T11:52:42.167Z,100837.09
2023-04-10T11:54:49.486Z,100831.41
2023-04-10T11:57:00.096Z,100822.38
2023-04-10T11:59:02.302Z,100817.34
2023-04-10T12:01:04.844Z,100822.50
2023-04-10T12:03:06.563Z,100821.81
2023-04-10T12:05:09.284Z,100819.63
2023-04-10T12:07:11.122Z,100812.97
2023-04-10T12:09:13.450Z,100806.38
2023-04-10T12:11:18.424Z,100807.03
2023-04-10T12:13:24.887Z,100799.97
2023-04-10T12:15:30.353Z,100799.41
2023-04-10T12:17:32.097Z,100799.53
2023-04-10T12:19:34.862Z,100800.31
2023-04-10T12:21:36.754Z,100793.94
2023-04-10T12:23:39.408Z,100794.06
2023-04-10T12:25:41.850Z,100791.66
2023-04-10T12:27:48.964Z,100781.28
2023-04-10T12:29:52.000Z,100794.16
2023-04-10T12:31:53.612Z,100795.19
2023-04-10T12:33:55.292Z,100777.38
2023-04-10T12:35:56.987Z,100783.53
2023-04-10T12:37:58.622Z,100776.97
2023-04-10T12:40:06.129Z,100786.25
2023-04-10T12:42:11.530Z,100778.81
2023-04-10T12:44:14.420Z,100768.13
2023-04-10T12:46:24.445Z,100772.09
2023-04-10T12:48:26.210Z,100762.84
2023-04-10T12:50:27.781Z,100756.69
2023-04-10T12:52:29.480Z,100749.88
2023-04-10T12:54:32.841Z,100750.09
2023-04-10T12:56:41.551Z,100746.53
2023-04-10T12:58:43.160Z,100743.38
2023-04-10T13:00:46.280Z,100746.09
2023-04-10T13:02:49.111Z,100743.59
2023-04-10T13:04:50.920Z,100738.31
2023-04-10T13:06:52.648Z,100734.69
2023-04-10T13:08:54.593Z,100729.31
2023-04-10T13:10:59.603Z,100729.44
2023-04-10T13:13:01.185Z,100731.03
2023-04-10T13:15:03.319Z,100729.19
2023-04-10T13:17:06.323Z,100729.06
2023-04-10T13:19:07.919Z,100723.59
2023-04-10T13:21:09.707Z,100720.50
2023-04-10T13:23:11.541Z,100715.72
2023-04-10T13:25:13.284Z,100714.94
2023-04-10T13:27:14.954Z,100705.63
2023-04-10T13:29:18.823Z,100707.81
2023-04-10T13:31:20.429Z,100701.84
2023-04-10T13:33:23.478Z,100705.19
2023-04-10T13:35:25.079Z,100686.84
2023-04-10T13:37:26.715Z,100677.03
2023-04-10T13:39:29.466Z,100678.28
2023-04-10T13:41:31.087Z,100669.72
2023-04-10T13:43:32.874Z,100666.53
2023-04-10T13:45:34.575Z,100675.00
2023-04-10T13:47:36.251Z,100668.50
2023-04-10T13:49:39.430Z,100667.94
2023-04-10T13:51:41.004Z,100653.09
2023-04-10T13:53:42.666Z,100656.06
2023-04-10T13:55:44.760Z,100650.94
2023-04-10T13:57:46.450Z,100649.91
2023-04-10T13:59:48.010Z,100646.81
2023-04-10T14:01:49.720Z,100642.16
2023-04-10T14:03:51.633Z,100637.91
2023-04-10T14:05:54.704Z,100640.66
2023-04-10T14:07:56.292Z,100638.94
2023-04-10T14:09:57.910Z,100632.69
2023-04-10T14:11:59.556Z,100633.38
2023-04-10T14:14:01.279Z,100636.09
2023-04-10T14:16:03.001Z,100629.81
2023-04-10T14:18:04.985Z,100621.94
2023-04-10T14:20:07.870Z,100624.69
2023-04-10T14:22:10.865Z,100619.91
2023-04-10T14:24:12.413Z,100623.34
2023-04-10T14:26:13.970Z,100612.16
2023-04-10T14:28:15.589Z,100606.09
2023-04-10T14:30:17.231Z,100607.09
2023-04-10T14:32:18.913Z,100602.88
2023-04-10T14:34:20.562Z,100598.31
2023-04-10T14:36:22.129Z,100590.00
2023-04-10T14:38:25.237Z,100588.06
2023-04-10T14:40:26.827Z,100595.00
2023-04-10T14:42:28.396Z,100580.88
2023-04-10T14:44:30.309Z,100578.59
2023-04-10T14:46:31.881Z,100579.72
2023-04-10T14:48:33.498Z,100578.84
2023-04-10T14:50:35.242Z,100572.56
2023-04-10T14:52:36.975Z,100572.56
2023-04-10T14:54:39.942Z,100564.00
2023-04-10T14:56:41.628Z,100566.16
2023-04-10T14:58:43.954Z,100558.50
2023-04-10T15:00:45.683Z,100549.53
2023-04-10T15:02:47.351Z,100547.81
2023-04-10T15:04:50.746Z,100539.81
2023-04-10T15:06:52.360Z,100547.25
2023-04-10T15:08:55.000Z,100533.09
2023-04-10T15:10:57.957Z,100528.44
2023-04-10T15:12:59.560Z,100528.44
2023-04-10T15:15:01.236Z,100520.91
2023-04-10T15:17:02.997Z,100516.13
2023-04-10T15:19:04.635Z,100516.38
2023-04-10T15:21:06.380Z,100507.34
2023-04-10T15:23:08.254Z,100514.88
2023-04-10T15:25:10.035Z,100504.59
2023-04-10T15:27:13.030Z,100509.50
2023-04-10T15:29:14.869Z,100501.75
2023-04-10T15:31:16.546Z,100502.56
2023-04-10T15:33:18.175Z,100495.38
2023-04-10T15:35:19.765Z,100495.16
2023-04-10T15:37:21.272Z,100494.81
2023-04-10T15:39:23.084Z,100497.31
2023-04-10T15:41:24.547Z,100491.03
2023-04-10T15:43:27.653Z,100499.81
2023-04-10T15:45:29.414Z,100496.75
2023-04-10T15:47:31.295Z,100495.94
2023-04-10T15:49:37.663Z,100492.06
2023-04-10T15:51:40.573Z,100499.22
2023-04-10T15:53:42.323Z,100493.41
2023-04-10T15:55:43.914Z,100487.50
2023-04-10T15:57:47.722Z,100486.59
2023-04-10T15:59:52.868Z,100481.00
2023-04-10T16:01:54.575Z,100475.63
2023-04-10T16:03:56.648Z,100468.09
2023-04-10T16:05:58.621Z,100460.72
2023-04-10T16:08:02.280Z,100448.97
2023-04-10T16:10:04.301Z,100450.09
2023-04-10T16:12:06.085Z,100444.06
2023-04-10T16:14:07.753Z,100443.06
2023-04-10T16:16:15.425Z,100429.50
2023-04-10T16:18:17.219Z,100427.22
2023-04-10T16:20:18.816Z,100428.59
2023-04-10T16:22:20.517Z,100431.34
2023-04-10T16:24:22.241Z,100430.19
2023-04-10T16:26:24.008Z,100420.28
2023-04-10T16:28:25.878Z,100429.28
2023-04-10T16:30:27.403Z,100434.41
2023-04-10T16:32:31.729Z,100431.69
2023-04-10T16:34:34.392Z,100433.59
2023-04-10T16:36:37.399Z,100431.22
2023-04-10T16:38:39.013Z,100433.38
2023-04-10T16:40:40.674Z,100436.44
2023-04-10T16:42:42.549Z,100435.44
2023-04-10T16:44:44.165Z,100436.59
2023-04-10T16:46:45.793Z,100436.81
2023-04-10T16:48:48.808Z,100436.81
2023-04-10T16:50:50.511Z,100435.44
2023-04-10T16:52:52.180Z,100436.13
2023-04-10T16:54:53.765Z,100431.47
2023-04-10T16:56:55.346Z,100434.28
2023-04-10T16:58:57.298Z,100429.47
2023-04-10T17:00:59.184Z,100434.72
2023-04-10T17:03:00.926Z,100424.00
2023-04-10T17:05:04.058Z,100413.06
2023-04-10T17:07:05.801Z,100411.91
2023-04-10T17:09:07.402Z,100406.34
2023-04-10T17:11:09.257Z,100404.38
2023-04-10T17:13:10.874Z,100398.03
2023-04-10T17:15:12.580Z,100399.25
2023-04-10T17:17:14.467Z,100395.16
2023-04-10T17:19:16.034Z,100397.72
2023-04-10T17:21:18.951Z,100392.03
2023-04-10T17:23:20.616Z,100383.50
2023-04-10T17:25:22.378Z,100381.94
2023-04-10T17:27:23.963Z,100380.53
2023-04-10T17:29:25.729Z,100384.06
2023-04-10T17:31:27.417Z,100383.72
2023-04-10T17:33:29.138Z,100383.91
2023-04-10T17:35:30.812Z,100382.66
2023-04-10T17:37:33.669Z,100376.47
2023-04-10T17:39:35.165Z,100370.53
2023-04-10T17:41:36.706Z,100361.22
2023-04-10T17:43:38.235Z,100356.13
2023-04-10T17:45:40.350Z,100351.78
2023-04-10T17:47:41.973Z,100337.78
2023-04-10T17:49:43.697Z,100340.88
2023-04-10T17:51:45.254Z,100350.19
2023-04-10T17:53:51.223Z,100354.72
2023-04-10T17:55:52.758Z,100356.97
2023-04-10T17:57:56.728Z,100357.97
2023-04-10T17:59:58.316Z,100358.44
2023-04-10T18:01:59.975Z,100356.19
2023-04-10T18:04:03.554Z,100368.59
2023-04-10T18:06:05.509Z,100364.56
2023-04-10T18:08:07.137Z,100354.78
2023-04-10T18:10:11.464Z,100353.06
2023-04-10T18:12:13.295Z,100353.59
2023-04-10T18:14:14.996Z,100363.13
2023-04-10T18:16:16.749Z,100367.81
2023-04-10T18:18:18.344Z,100379.50
2023-04-10T18:20:20.069Z,100391.09
2023-04-10T18:22:21.759Z,100391.78
2023-04-10T18:24:23.329Z,100393.69
2023-04-10T18:26:28.789Z,100399.94
2023-04-10T18:28:30.356Z,100390.94
2023-04-10T18:30:31.931Z,100387.75
2023-04-10T18:32:33.525Z,100385.25
2023-04-10T18:34:35.058Z,100382.03
2023-04-10T18:36:36.621Z,100376.47
2023-04-10T18:38:38.169Z,100367.00
2023-04-10T18:40:39.780Z,100370.19
2023-04-10T18:42:42.673Z,100376.66
2023-04-10T18:44:44.344Z,100385.03
2023-04-10T18:46:51.086Z,100379.59
2023-04-10T18:48:55.551Z,100368.22
2023-04-10T18:50:57.107Z,100371.41
2023-04-10T18:52:58.650Z,100371.06
2023-04-10T18:55:00.475Z,100367.22
2023-04-10T18:57:02.329Z,100367.22
2023-04-10T18:59:05.580Z,100367.72
2023-04-10T19:01:07.318Z,100368.06
2023-04-10T19:03:09.055Z,100380.56
2023-04-10T19:05:10.665Z,100388.94
2023-04-10T19:07:13.528Z,100386.69
2023-04-10T19:09:15.200Z,100381.88
2023-04-10T19:11:16.757Z,100377.31
2023-04-10T19:13:18.378Z,100385.34
2023-04-10T19:15:21.531Z,100394.44
2023-04-10T19:17:23.192Z,100403.09
2023-04-10T19:19:24.799Z,100408.41
2023-04-10T19:21:26.392Z,100411.00
2023-04-10T19:23:28.113Z,100404.75
2023-04-10T19:25:29.993Z,100389.34
2023-04-10T19:27:31.586Z,100380.56
2023-04-10T19:29:33.164Z,100371.97
2023-04-10T19:31:36.323Z,100382.88
2023-04-10T19:33:38.021Z,100368.28
2023-04-10T19:35:39.629Z,100370.75
2023-04-10T19:37:41.270Z,100373.91
2023-04-10T19:39:42.907Z,100382.56
2023-04-10T19:41:44.542Z,100367.47
2023-04-10T19:43:46.234Z,100379.06
2023-04-10T19:45:47.870Z,100387.09
2023-04-10T19:47:51.734Z,100381.47
2023-04-10T19:49:53.344Z,100389.00
2023-04-10T19:51:55.044Z,100374.13
2023-04-10T19:53:56.885Z,100367.53
2023-04-10T19:55:58.818Z,100371.69
2023-04-10T19:58:00.382Z,100368.06
2023-04-10T20:00:02.230Z,100364.06
2023-04-10T20:02:03.985Z,100363.13
2023-04-10T20:04:07.076Z,100360.25
2023-04-10T20:06:08.849Z,100353.69
2023-04-10T20:08:10.487Z,100347.41
2023-04-10T20:10:12.119Z,100342.16
2023-04-10T20:12:13.656Z,100340.41
2023-04-10T20:14:15.525Z,100332.84
2023-04-10T20:16:17.210Z,100329.81
2023-04-10T20:18:18.935Z,100329.34
2023-04-10T20:20:22.211Z,100316.69
2023-04-10T20:22:23.822Z,100301.00
2023-04-10T20:24:25.405Z,100305.81
2023-04-10T20:26:27.003Z,100304.84
2023-04-10T20:28:28.664Z,100309.38
2023-04-10T20:30:30.437Z,100306.66
2023-04-10T20:32:32.175Z,100308.09
2023-04-10T20:34:35.362Z,100302.63
2023-04-10T20:36:38.458Z,100306.34
2023-04-10T20:38:40.317Z,100305.88
2023-04-10T20:40:41.904Z,100308.13
2023-04-10T20:42:43.542Z,100307.31
2023-04-10T20:44:45.301Z,100298.53
2023-04-10T20:46:47.321Z,100289.88
2023-04-10T20:48:49.037Z,100282.69
2023-04-10T20:50:50.658Z,100290.72
2023-04-10T20:52:53.577Z,100273.25
2023-04-10T20:54:55.117Z,100270.22
2023-04-10T20:56:56.642Z,100263.19
2023-04-10T20:58:58.220Z,100276.00
2023-04-10T21:00:59.896Z,100272.94
2023-04-10T21:03:01.738Z,100273.28
2023-04-10T21:05:03.807Z,100276.47
2023-04-10T21:07:05.372Z,100275.03
2023-04-10T21:09:08.393Z,100279.34
2023-04-10T21:11:09.963Z,100285.91
2023-04-10T21:13:12.842Z,100284.31
2023-04-10T21:15:14.398Z,100284.31
2023-04-10T21:17:18.054Z,100277.41
2023-04-10T21:19:19.684Z,100271.97
2023-04-10T21:21:21.334Z,100273.91
2023-04-10T21:23:25.862Z,100286.88
2023-04-10T21:25:31.974Z,100287.16
2023-04-10T21:27:33.535Z,100271.03
2023-04-10T21:29:36.221Z,100280.78
2023-04-10T21:31:37.774Z,100267.97
2023-04-10T21:33:39.514Z,100261.28
2023-04-10T21:35:42.319Z,100250.03
2023-04-10T21:37:44.061Z,100255.81
2023-04-10T21:39:45.626Z,100265.59
2023-04-10T21:41:48.622Z,100276.13
2023-04-10T21:43:50.181Z,100257.91
2023-04-10T21:45:52.020Z,100249.25
2023-04-10T21:47:53.800Z,100248.63
2023-04-10T21:49:55.608Z,100237.09
2023-04-10T21:51:57.218Z,100215.50
2023-04-10T21:53:58.796Z,100198.88
2023-04-10T21:56:00.577Z,100175.34
2023-04-10T21:58:06.143Z,100168.13
2023-04-10T22:00:08.951Z,100186.53
2023-04-10T22:02:10.963Z,100179.19
2023-04-10T22:04:12.745Z,100178.72
2023-04-10T22:06:14.455Z,100176.94
2023-04-10T22:08:16.216Z,100177.88
2023-04-10T22:10:17.882Z,100173.69
2023-04-10T22:12:19.555Z,100174.03
2023-04-10T22:14:22.531Z,100156.94
2023-04-10T22:16:24.296Z,100153.25
2023-04-10T22:18:28.192Z,100155.84
2023-04-10T22:20:31.841Z,100159.69
2023-04-10T22:22:33.440Z,100155.53
2023-04-10T22:24:35.398Z,100149.16
2023-04-10T22:26:37.470Z,100142.13
2023-04-10T22:28:39.241Z,100140.19
2023-04-10T22:30:42.449Z,100151.09
2023-04-10T22:32:44.334Z,100155.41
2023-04-10T22:34:46.114Z,100151.41
2023-04-10T22:36:48.153Z,100148.69
2023-04-10T22:38:50.747Z,100161.81
2023-04-10T22:40:54.005Z,100168.84
2023-04-10T22:42:55.713Z,100165.66
2023-04-10T22:44:57.262Z,100158.13
2023-04-10T22:47:00.346Z,100168.38
2023-04-10T22:49:02.135Z,100174.78
2023-04-10T22:51:03.954Z,100170.22
2023-04-10T22:53:05.664Z,100186.22
2023-04-10T22:55:08.289Z,100188.47
2023-04-10T22:57:10.154Z,100187.78
2023-04-10T22:59:11.854Z,100191.47
2023-04-10T23:01:13.540Z,100205.41
2023-04-10T23:03:16.672Z,100206.41
2023-04-10T23:05:18.383Z,100204.16
2023-04-10T23:07:20.185Z,100220.66
2023-04-10T23:09:21.856Z,100226.25
2023-04-10T23:11:23.438Z,100227.53
2023-04-10T23:13:25.129Z,100226.38
2023-04-10T23:15:26.825Z,100230.72
2023-04-10T23:17:28.568Z,100227.19
2023-04-10T23:19:31.602Z,100234.03
2023-04-10T23:21:33.339Z,100230.69
2023-04-10T23:23:34.916Z,100240.78
2023-04-10T23:25:37.191Z,100238.22